createdAt,value
2022-12-13T00:01:52.073Z,54.90
2022-12-13T00:04:21.697Z,47.87
2022-12-13T00:06:50.025Z,45.53
2022-12-13T00:09:19.253Z,44.17
2022-12-13T00:11:46.248Z,46.20
2022-12-13T00:14:15.002Z,48.97
2022-12-13T00:16:48.856Z,45.50
2022-12-13T00:19:16.882Z,47.97
2022-12-13T00:21:44.591Z,52.10
2022-12-13T00:24:11.526Z,49.90
2022-12-13T00:26:38.442Z,54.53
2022-12-13T00:29:07.621Z,49.23
2022-12-13T00:34:22.580Z,49.13
2022-12-13T00:36:49.859Z,44.47
2022-12-13T00:39:19.227Z,48.43
2022-12-13T00:41:46.750Z,50.10
2022-12-13T00:44:14.609Z,45.77
2022-12-13T00:46:42.545Z,42.83
2022-12-13T00:49:12.943Z,48.47
2022-12-13T00:51:40.873Z,46.07
2022-12-13T00:54:08.126Z,44.97
2022-12-13T00:56:37.343Z,41.70
2022-12-13T00:59:04.872Z,53.43
2022-12-13T01:01:36.631Z,45.97
2022-12-13T01:04:07.981Z,45.77
2022-12-13T01:06:45.726Z,44.00
2022-12-13T01:09:20.436Z,43.40
2022-12-13T01:11:48.866Z,43.87
2022-12-13T01:14:17.361Z,43.33
2022-12-13T01:16:44.420Z,43.00
2022-12-13T01:19:11.437Z,43.83
2022-12-13T01:21:38.628Z,41.00
2022-12-13T01:24:06.840Z,40.50
2022-12-13T01:26:34.190Z,44.70
2022-12-13T01:29:01.372Z,43.77
2022-12-13T01:31:28.926Z,39.00
2022-12-13T01:33:55.817Z,39.40
2022-12-13T01:36:27.318Z,44.43
2022-12-13T01:38:59.364Z,42.50
2022-12-13T01:41:28.528Z,42.03
2022-12-13T01:44:52.221Z,43.57
2022-12-13T01:47:52.067Z,46.57
2022-12-13T01:50:27.906Z,37.27
2022-12-13T01:52:56.137Z,40.23
2022-12-13T01:55:32.368Z,39.27
2022-12-13T01:58:03.538Z,41.50
2022-12-13T02:00:31.236Z,37.70
2022-12-13T02:02:59.940Z,40.00
2022-12-13T02:06:01.823Z,37.23
2022-12-13T02:08:30.053Z,35.50
2022-12-13T02:10:58.555Z,38.77
2022-12-13T02:13:25.445Z,35.63
2022-12-13T02:16:22.300Z,37.80
2022-12-13T02:19:26.401Z,37.40
2022-12-13T02:22:30.986Z,39.37
2022-12-13T02:25:45.407Z,40.20
2022-12-13T02:28:53.683Z,41.77
2022-12-13T02:31:52.223Z,40.83
2022-12-13T02:34:27.036Z,34.87
2022-12-13T02:37:28.682Z,33.93
2022-12-13T02:40:03.377Z,35.93
2022-12-13T02:43:00.280Z,39.10
2022-12-13T02:45:38.138Z,35.90
2022-12-13T02:48:08.485Z,33.17
2022-12-13T02:50:36.981Z,37.93
2022-12-13T02:53:06.320Z,37.63
2022-12-13T02:55:35.886Z,34.40
2022-12-13T02:58:02.899Z,36.23
2022-12-13T03:01:29.049Z,34.33
2022-12-13T03:04:29.110Z,35.07
2022-12-13T03:07:24.352Z,34.30
2022-12-13T03:10:11.701Z,32.70
2022-12-13T03:13:11.979Z,35.73
2022-12-13T03:15:57.898Z,33.00
2022-12-13T03:18:28.704Z,31.67
2022-12-13T03:21:03.748Z,30.70
2022-12-13T03:23:31.434Z,34.97
2022-12-13T03:26:13.429Z,34.60
2022-12-13T03:28:40.949Z,31.60
2022-12-13T03:31:08.564Z,38.40
2022-12-13T03:33:35.625Z,33.17
2022-12-13T03:36:03.127Z,32.27
2022-12-13T03:38:30.540Z,31.43
2022-12-13T03:41:12.046Z,35.27
2022-12-13T03:43:40.547Z,28.63
2022-12-13T03:46:09.084Z,35.93
2022-12-13T03:48:36.520Z,27.30
2022-12-13T03:51:03.881Z,31.40
2022-12-13T03:53:32.355Z,36.83
2022-12-13T03:56:05.965Z,32.13
2022-12-13T03:58:37.684Z,28.77
2022-12-13T04:01:15.420Z,30.80
2022-12-13T04:03:45.519Z,34.70
2022-12-13T04:06:13.475Z,33.10
2022-12-13T04:08:51.428Z,32.17
2022-12-13T04:11:43.038Z,34.30
2022-12-13T04:14:12.108Z,35.77
2022-12-13T04:16:39.876Z,31.40
2022-12-13T04:19:07.571Z,30.47
2022-12-13T04:21:34.487Z,33.27
2022-12-13T04:24:04.459Z,30.53
2022-12-13T04:26:34.310Z,32.13
2022-12-13T04:29:01.254Z,33.97
2022-12-13T04:31:28.224Z,32.00
2022-12-13T04:33:55.152Z,30.63
2022-12-13T04:36:32.365Z,31.10
2022-12-13T04:39:01.605Z,32.80
2022-12-13T04:41:34.556Z,30.73
2022-12-13T04:44:02.647Z,32.27
2022-12-13T04:46:29.688Z,31.83
2022-12-13T04:48:58.204Z,35.17
2022-12-13T04:51:25.184Z,33.47
2022-12-13T04:53:52.659Z,34.47
2022-12-13T04:56:19.921Z,37.77
2022-12-13T04:58:46.865Z,34.80
2022-12-13T05:01:14.027Z,30.40
2022-12-13T05:03:40.999Z,31.27
2022-12-13T05:06:26.808Z,33.63
2022-12-13T05:08:55.122Z,31.80
2022-12-13T05:11:35.921Z,33.97
2022-12-13T05:14:03.842Z,29.97
2022-12-13T05:16:30.838Z,35.17
2022-12-13T05:18:57.902Z,34.97
2022-12-13T05:21:24.833Z,36.13
2022-12-13T05:23:51.755Z,33.60
2022-12-13T05:26:18.717Z,32.30
2022-12-13T05:28:45.720Z,33.73
2022-12-13T05:31:23.610Z,34.10
2022-12-13T05:33:52.186Z,29.90
2022-12-13T05:36:19.620Z,34.37
2022-12-13T05:38:46.500Z,32.37
2022-12-13T05:41:19.814Z,33.20
2022-12-13T05:43:46.714Z,32.97
2022-12-13T05:46:14.086Z,30.20
2022-12-13T05:48:41.882Z,32.27
2022-12-13T05:51:11.898Z,29.13
2022-12-13T05:53:42.655Z,30.70
2022-12-13T05:56:11.372Z,29.93
2022-12-13T05:58:40.314Z,29.27
2022-12-13T06:01:14.061Z,30.90
2022-12-13T06:03:42.053Z,34.83
2022-12-13T06:06:11.228Z,27.23
2022-12-13T06:08:38.688Z,34.20
2022-12-13T06:11:11.061Z,34.43
2022-12-13T06:13:44.017Z,35.83
2022-12-13T06:16:22.936Z,34.40
2022-12-13T06:18:59.395Z,36.77
2022-12-13T06:21:41.200Z,34.30
2022-12-13T06:24:10.881Z,35.97
2022-12-13T06:26:37.936Z,35.40
2022-12-13T06:29:04.820Z,35.97
2022-12-13T06:31:31.845Z,32.23
2022-12-13T06:34:14.981Z,42.03
2022-12-13T06:36:43.063Z,48.30
2022-12-13T06:39:10.085Z,47.17
2022-12-13T06:41:37.179Z,50.23
2022-12-13T06:44:05.086Z,44.93
2022-12-13T06:46:32.451Z,48.53
2022-12-13T06:48:59.594Z,41.67
2022-12-13T06:51:32.823Z,47.90
2022-12-13T06:54:04.022Z,40.53
2022-12-13T06:56:31.704Z,45.13
2022-12-13T06:59:01.185Z,44.33
2022-12-13T07:01:37.777Z,42.07
2022-12-13T07:04:29.012Z,40.50
2022-12-13T07:06:53.845Z,37.63
2022-12-13T07:09:20.912Z,38.13
2022-12-13T07:11:51.963Z,43.67
2022-12-13T07:14:20.206Z,38.20
2022-12-13T07:16:50.356Z,41.93
2022-12-13T07:19:23.586Z,39.43
2022-12-13T07:21:51.877Z,35.93
2022-12-13T07:24:22.369Z,43.87
2022-12-13T07:26:49.396Z,39.97
2022-12-13T07:29:22.386Z,41.23
2022-12-13T07:31:50.094Z,37.43
2022-12-13T07:34:17.511Z,37.50
2022-12-13T07:36:44.428Z,35.70
2022-12-13T07:39:11.332Z,39.93
2022-12-13T07:41:38.259Z,32.90
2022-12-13T07:44:05.351Z,36.13
2022-12-13T07:46:33.882Z,42.93
2022-12-13T07:49:05.263Z,40.57
2022-12-13T07:51:35.116Z,39.40
2022-12-13T07:54:07.071Z,38.60
2022-12-13T07:56:35.787Z,42.00
2022-12-13T07:59:07.594Z,35.10
2022-12-13T08:01:41.182Z,35.43
2022-12-13T08:04:10.927Z,39.70
2022-12-13T08:06:40.593Z,41.93
2022-12-13T08:09:08.084Z,48.00
2022-12-13T08:11:38.038Z,43.57
2022-12-13T08:14:06.274Z,47.40
2022-12-13T08:16:35.576Z,51.23
2022-12-13T08:19:05.335Z,60.10
2022-12-13T08:22:01.865Z,57.40
2022-12-13T08:24:30.754Z,57.90
2022-12-13T08:27:02.814Z,56.30
2022-12-13T08:29:34.501Z,48.97
2022-12-13T08:32:09.522Z,48.83
2022-12-13T08:34:36.770Z,49.77
2022-12-13T08:37:04.853Z,40.60
2022-12-13T08:39:35.736Z,41.87
2022-12-13T08:42:16.705Z,37.13
2022-12-13T08:44:50.884Z,38.33
2022-12-13T08:47:23.708Z,36.53
2022-12-13T08:50:04.095Z,33.00
2022-12-13T08:52:39.289Z,37.10
2022-12-13T08:55:12.722Z,35.10
2022-12-13T08:57:41.214Z,39.80
2022-12-13T09:00:18.429Z,36.93
2022-12-13T09:02:45.455Z,43.37
2022-12-13T09:05:13.167Z,42.17
2022-12-13T09:07:59.720Z,38.93
2022-12-13T09:10:29.842Z,39.83
2022-12-13T09:13:19.397Z,44.53
2022-12-13T09:15:52.640Z,35.67
2022-12-13T09:18:24.168Z,44.13
2022-12-13T09:20:55.598Z,38.63
2022-12-13T09:23:47.491Z,38.20
2022-12-13T09:26:16.616Z,39.67
2022-12-13T09:28:43.759Z,39.37
2022-12-13T09:31:14.700Z,43.60
2022-12-13T09:33:42.474Z,37.17
2022-12-13T09:36:17.655Z,39.10
2022-12-13T09:38:45.337Z,39.53
2022-12-13T09:41:32.930Z,37.47
2022-12-13T09:44:46.659Z,37.60
2022-12-13T09:47:35.335Z,38.17
2022-12-13T09:50:15.276Z,41.67
2022-12-13T09:52:44.393Z,37.07
2022-12-13T09:55:24.243Z,36.83
2022-12-13T09:57:52.739Z,38.10
2022-12-13T10:00:27.492Z,43.33
2022-12-13T10:02:58.346Z,34.87
2022-12-13T10:05:34.388Z,36.10
2022-12-13T10:08:47.234Z,34.57
2022-12-13T10:11:16.983Z,31.73
2022-12-13T10:13:48.232Z,34.87
2022-12-13T10:16:36.467Z,34.37
2022-12-13T10:19:28.720Z,31.70
2022-12-13T10:22:01.739Z,33.27
2022-12-13T10:24:47.270Z,32.90
2022-12-13T10:27:42.915Z,36.60
2022-12-13T10:30:27.944Z,31.60
2022-12-13T10:33:02.689Z,30.83
2022-12-13T10:35:38.039Z,29.93
2022-12-13T10:38:14.003Z,31.87
2022-12-13T10:40:46.740Z,33.93
2022-12-13T10:43:27.520Z,28.63
2022-12-13T10:46:00.347Z,29.93
2022-12-13T10:48:49.767Z,31.40
2022-12-13T10:51:22.253Z,31.57
2022-12-13T10:53:55.298Z,27.00
2022-12-13T10:56:32.753Z,28.87
2022-12-13T10:59:17.259Z,31.83
2022-12-13T11:01:45.175Z,32.17
2022-12-13T11:04:33.880Z,27.20
2022-12-13T11:07:26.222Z,27.43
2022-12-13T11:09:53.323Z,28.03
2022-12-13T11:12:24.428Z,27.00
2022-12-13T11:15:16.199Z,31.43
2022-12-13T11:17:52.873Z,33.20
2022-12-13T11:20:34.209Z,31.00
2022-12-13T11:23:45.229Z,28.47
2022-12-13T11:26:25.105Z,27.57
2022-12-13T11:30:01.637Z,28.20
2022-12-13T11:32:43.504Z,25.47
2022-12-13T11:35:41.745Z,27.87
2022-12-13T11:38:31.091Z,26.50
2022-12-13T11:41:32.544Z,28.93
2022-12-13T11:44:09.257Z,29.77
2022-12-13T11:46:42.718Z,25.00
2022-12-13T11:49:19.214Z,30.37
2022-12-13T11:52:20.065Z,28.17
2022-12-13T11:55:04.170Z,30.27
2022-12-13T11:57:55.052Z,25.03
2022-12-13T12:00:35.737Z,26.03
2022-12-13T12:03:21.329Z,26.10
2022-12-13T12:05:56.511Z,31.53
2022-12-13T12:08:57.073Z,27.37
2022-12-13T12:11:46.301Z,28.80
2022-12-13T12:15:26.698Z,24.50
2022-12-13T12:17:57.929Z,28.50
2022-12-13T12:20:57.176Z,24.40
2022-12-13T12:23:47.386Z,23.73
2022-12-13T12:26:31.849Z,24.47
2022-12-13T12:29:44.949Z,27.77
2022-12-13T12:32:51.666Z,28.30
2022-12-13T12:36:18.074Z,28.10
2022-12-13T12:38:59.982Z,25.80
2022-12-13T12:41:51.435Z,25.93
2022-12-13T12:44:51.421Z,23.67
2022-12-13T12:51:03.617Z,27.07
2022-12-13T12:54:14.830Z,21.13
2022-12-13T12:57:09.478Z,23.37
2022-12-13T13:00:24.727Z,21.10
2022-12-13T13:03:26.965Z,20.63
2022-12-13T13:06:06.209Z,22.07
2022-12-13T13:09:01.216Z,22.90
2022-12-13T13:11:31.557Z,22.00
2022-12-13T13:14:01.952Z,22.77
2022-12-13T13:16:40.075Z,21.73
2022-12-13T13:19:12.783Z,26.53
2022-12-13T13:21:53.351Z,18.53
2022-12-13T13:24:32.424Z,25.77
2022-12-13T13:27:09.862Z,20.27
2022-12-13T13:29:43.235Z,23.33
2022-12-13T13:32:11.208Z,18.73
2022-12-13T13:34:41.524Z,22.47
2022-12-13T13:37:29.299Z,22.10
2022-12-13T13:40:08.308Z,20.43
2022-12-13T13:43:01.176Z,21.10
2022-12-13T13:45:28.117Z,26.17
2022-12-13T13:48:49.608Z,22.73
2022-12-13T13:55:29.012Z,22.63
2022-12-13T13:58:11.473Z,21.53
2022-12-13T14:01:44.268Z,22.73
2022-12-13T14:05:03.620Z,21.03
2022-12-13T14:08:20.342Z,22.23
2022-12-13T14:11:00.959Z,20.60
2022-12-13T14:14:01.914Z,19.93
2022-12-13T14:17:01.766Z,21.70
2022-12-13T14:20:06.129Z,23.97
2022-12-13T14:22:46.424Z,21.67
2022-12-13T14:25:46.410Z,23.50
2022-12-13T14:28:28.019Z,26.83
2022-12-13T14:30:57.198Z,29.07
2022-12-13T14:33:26.793Z,26.27
2022-12-13T14:36:00.445Z,28.40
2022-12-13T14:38:30.986Z,37.97
2022-12-13T14:41:02.069Z,35.13
2022-12-13T14:43:34.895Z,30.90
2022-12-13T14:46:05.425Z,32.50
2022-12-13T14:48:50.634Z,38.93
2022-12-13T14:51:39.507Z,34.17
2022-12-13T14:54:08.028Z,35.57
2022-12-13T14:56:35.272Z,35.23
2022-12-13T14:59:12.340Z,39.40
2022-12-13T15:01:40.481Z,33.83
2022-12-13T15:04:37.908Z,36.73
2022-12-13T15:07:25.876Z,35.00
2022-12-13T15:10:01.204Z,39.00
2022-12-13T15:12:30.007Z,37.10
2022-12-13T15:15:06.403Z,35.47
2022-12-13T15:17:39.812Z,33.20
2022-12-13T15:20:31.678Z,35.13
2022-12-13T15:23:21.338Z,39.83
2022-12-13T15:26:11.318Z,64.67
2022-12-13T15:28:46.822Z,57.40
2022-12-13T15:31:14.855Z,49.73
2022-12-13T15:33:48.184Z,37.97
2022-12-13T15:36:25.410Z,36.23
2022-12-13T15:38:55.275Z,33.27
2022-12-13T15:41:36.852Z,41.90
2022-12-13T15:44:19.498Z,38.10
2022-12-13T15:46:49.917Z,38.30
2022-12-13T15:49:32.079Z,33.00
2022-12-13T15:52:28.361Z,33.57
2022-12-13T15:55:21.761Z,33.63
2022-12-13T15:57:58.143Z,33.20
2022-12-13T16:00:34.517Z,36.97
2022-12-13T16:03:14.970Z,37.37
2022-12-13T16:05:51.591Z,34.60
2022-12-13T16:08:35.621Z,35.03
2022-12-13T16:11:03.389Z,37.80
2022-12-13T16:13:37.146Z,41.13
2022-12-13T16:16:10.121Z,36.87
2022-12-13T16:18:57.610Z,36.23
2022-12-13T16:21:25.652Z,33.67
2022-12-13T16:23:52.976Z,33.53
2022-12-13T16:26:26.432Z,33.73
2022-12-13T16:29:00.608Z,32.37
2022-12-13T16:31:35.810Z,34.53
2022-12-13T16:34:04.613Z,38.57
2022-12-13T16:36:32.062Z,31.23
2022-12-13T16:38:59.222Z,34.73
2022-12-13T16:41:26.329Z,31.90
2022-12-13T16:44:01.448Z,36.47
2022-12-13T16:47:12.235Z,35.27
2022-12-13T16:49:27.903Z,34.60
2022-12-13T16:51:56.093Z,33.20
2022-12-13T16:54:25.291Z,35.17
2022-12-13T16:56:54.099Z,36.87
2022-12-13T16:59:24.864Z,45.60
2022-12-13T17:01:52.162Z,49.83
2022-12-13T17:04:22.538Z,41.63
2022-12-13T17:06:50.931Z,39.47
2022-12-13T17:09:21.632Z,40.30
2022-12-13T17:11:48.585Z,44.50
2022-12-13T17:14:15.638Z,43.77
2022-12-13T17:16:42.890Z,38.63
2022-12-13T17:19:12.006Z,38.00
2022-12-13T17:21:38.981Z,42.83
2022-12-13T17:24:06.269Z,38.47
2022-12-13T17:26:33.230Z,36.53
2022-12-13T17:29:00.169Z,38.17
2022-12-13T17:31:34.934Z,41.67
2022-12-13T17:34:04.073Z,37.37
2022-12-13T17:36:34.063Z,38.27
2022-12-13T17:39:00.986Z,39.23
2022-12-13T17:41:27.915Z,40.27
2022-12-13T17:44:00.422Z,47.57
2022-12-13T17:46:27.411Z,52.80
2022-12-13T17:48:54.387Z,47.47
2022-12-13T17:51:21.358Z,45.20
2022-12-13T17:53:48.291Z,48.43
2022-12-13T17:56:16.087Z,53.37
2022-12-13T17:58:43.952Z,54.10
2022-12-13T18:01:20.726Z,51.40
2022-12-13T18:03:49.036Z,53.97
2022-12-13T18:06:16.423Z,63.27
2022-12-13T18:08:46.034Z,62.00
2022-12-13T18:14:04.766Z,61.70
2022-12-13T18:16:38.255Z,58.17
2022-12-13T18:19:08.716Z,61.27
2022-12-13T18:21:36.900Z,58.20
2022-12-13T18:24:06.625Z,60.13
2022-12-13T18:26:34.150Z,64.03
2022-12-13T18:29:01.542Z,58.50
2022-12-13T18:31:28.634Z,56.20
2022-12-13T18:34:00.982Z,61.07
2022-12-13T18:36:28.511Z,61.87
2022-12-13T18:38:55.620Z,62.73
2022-12-13T18:41:27.926Z,54.93
2022-12-13T18:44:00.726Z,57.07
2022-12-13T18:46:30.879Z,57.77
2022-12-13T18:48:58.370Z,57.80
2022-12-13T18:51:26.359Z,58.67
2022-12-13T18:53:54.967Z,64.07
2022-12-13T18:56:22.067Z,57.03
2022-12-13T18:58:50.550Z,65.90
2022-12-13T19:01:18.692Z,63.57
2022-12-13T19:03:47.576Z,58.90
2022-12-13T19:06:22.082Z,62.43
2022-12-13T19:08:57.645Z,57.70
2022-12-13T19:11:27.007Z,59.60
2022-12-13T19:13:54.841Z,55.13
2022-12-13T19:16:23.408Z,57.67
2022-12-13T19:18:50.607Z,61.70
2022-12-13T19:21:20.466Z,57.20
2022-12-13T19:23:55.038Z,64.83
2022-12-13T19:26:24.277Z,61.93
2022-12-13T19:28:51.268Z,59.37
2022-12-13T19:31:18.388Z,62.77
2022-12-13T19:33:45.349Z,61.73
2022-12-13T19:36:12.639Z,61.43
2022-12-13T19:38:40.418Z,62.60
2022-12-13T19:41:14.414Z,66.97
2022-12-13T19:43:46.576Z,64.60
2022-12-13T19:46:19.405Z,61.73
2022-12-13T19:48:46.431Z,67.10
2022-12-13T19:51:13.590Z,61.43
2022-12-13T19:53:41.574Z,67.97
2022-12-13T19:56:11.527Z,57.70
2022-12-13T19:58:39.420Z,60.43
2022-12-13T20:01:07.881Z,58.63
2022-12-13T20:03:37.476Z,63.70
2022-12-13T20:06:07.270Z,61.40
2022-12-13T20:08:34.695Z,62.93
2022-12-13T20:11:13.091Z,65.33
2022-12-13T20:13:41.008Z,60.00
2022-12-13T20:16:08.718Z,61.97
2022-12-13T20:18:35.686Z,63.80
2022-12-13T20:21:14.133Z,61.50
2022-12-13T20:23:49.182Z,68.70
2022-12-13T20:26:25.975Z,67.93
2022-12-13T20:28:53.184Z,67.80
2022-12-13T20:31:24.214Z,63.17
2022-12-13T20:34:04.575Z,61.73
2022-12-13T20:36:31.909Z,54.03
2022-12-13T20:39:01.488Z,57.80
2022-12-13T20:41:31.225Z,58.17
2022-12-13T20:44:00.700Z,59.37
2022-12-13T20:46:29.636Z,59.37
2022-12-13T20:49:00.753Z,59.47
2022-12-13T20:51:30.072Z,53.47
2022-12-13T20:53:57.495Z,61.03
2022-12-13T20:56:30.671Z,64.20
2022-12-13T20:58:57.828Z,60.47
2022-12-13T21:01:28.383Z,66.23
2022-12-13T21:04:00.077Z,62.90
2022-12-13T21:06:29.573Z,57.60
2022-12-13T21:09:02.525Z,57.90
2022-12-13T21:11:37.734Z,64.30
2022-12-13T21:14:12.318Z,62.07
2022-12-13T21:16:48.907Z,61.80
2022-12-13T21:19:25.299Z,58.03
2022-12-13T21:21:53.456Z,59.23
2022-12-13T21:24:22.947Z,54.30
2022-12-13T21:26:51.250Z,55.43
2022-12-13T21:29:19.007Z,56.77
2022-12-13T21:31:49.851Z,59.37
2022-12-13T21:34:18.910Z,57.77
2022-12-13T21:36:52.227Z,55.33
2022-12-13T21:39:23.303Z,56.43
2022-12-13T21:41:50.620Z,56.90
2022-12-13T21:44:19.206Z,58.57
2022-12-13T21:49:34.355Z,54.10
2022-12-13T21:52:01.284Z,52.60
2022-12-13T21:54:28.180Z,55.83
2022-12-13T21:57:13.487Z,57.53
2022-12-13T21:59:40.429Z,57.90
2022-12-13T22:02:19.958Z,55.43
2022-12-13T22:04:50.250Z,55.70
2022-12-13T22:07:22.520Z,50.83
2022-12-13T22:09:51.270Z,52.23
2022-12-13T22:12:32.038Z,50.27
2022-12-13T22:14:59.095Z,54.73
2022-12-13T22:17:34.748Z,46.67
2022-12-13T22:20:08.980Z,53.90
2022-12-13T22:22:38.397Z,49.43
2022-12-13T22:25:06.659Z,53.83
2022-12-13T22:27:34.219Z,52.13
2022-12-13T22:30:01.198Z,49.83
2022-12-13T22:32:30.368Z,54.40
2022-12-13T22:34:57.661Z,50.83
2022-12-13T22:37:25.003Z,50.53
2022-12-13T22:39:52.092Z,48.00
2022-12-13T22:42:19.816Z,51.97
2022-12-13T22:44:46.901Z,50.77
2022-12-13T22:47:13.818Z,50.47
2022-12-13T22:49:40.773Z,50.43
2022-12-13T22:52:07.775Z,54.50
2022-12-13T22:54:34.740Z,47.33
2022-12-13T22:57:01.733Z,49.43
2022-12-13T22:59:28.732Z,47.10
2022-12-13T23:02:02.151Z,49.13
2022-12-13T23:04:31.691Z,48.90
2022-12-13T23:06:58.720Z,40.97
2022-12-13T23:09:25.620Z,51.83
2022-12-13T23:12:11.091Z,44.93
2022-12-13T23:14:37.988Z,48.73
2022-12-13T23:17:05.441Z,53.30
2022-12-13T23:19:50.631Z,49.63
2022-12-13T23:22:25.431Z,49.77
2022-12-13T23:24:53.282Z,52.27
2022-12-13T23:27:22.811Z,52.70
2022-12-13T23:29:50.135Z,48.37
2022-12-13T23:32:17.452Z,50.07
2022-12-13T23:34:44.358Z,50.67
2022-12-13T23:37:11.563Z,49.27
2022-12-13T23:39:38.781Z,46.80
2022-12-13T23:42:05.759Z,49.90
2022-12-13T23:44:32.721Z,41.90
2022-12-13T23:46:59.647Z,47.40
2022-12-13T23:49:26.592Z,41.93
2022-12-13T23:51:54.194Z,49.00
2022-12-13T23:54:21.109Z,48.90
2022-12-13T23:56:48.423Z,45.77
2022-12-13T23:59:15.316Z,46.43
